Time;durP1;ratioP1;P1;durP2;ratioP2;P2;SDS_P1;SDS_P2;PMS_P1;PMS_P2;Temp;Humidity;BMP_temperature;BMP_pressure;BME280_temperature;BME280_humidity;BME280_pressure;Samples;Min_cycle;Max_cycle;Signal;HPM_P1;HPM_P2
2022/06/05 00:00:33;;;;;;;21.88;9.00;;;11.70;99.90;;;;;;5092644;28;20031;-76
2022/06/05 00:03:32;;;;;;;23.40;8.47;;;11.70;99.90;;;;;;5076375;28;20059;-76
2022/06/05 00:06:13;;;;;;;21.33;7.68;;;11.70;99.90;;;;;;5093596;28;20040;-76
2022/06/05 00:08:52;;;;;;;23.95;12.13;;;11.70;99.90;;;;;;5076682;28;20472;-76
2022/06/05 00:11:18;;;;;;;22.73;8.98;;;11.60;99.90;;;;;;5109854;28;20083;-76
2022/06/05 00:13:53;;;;;;;17.92;8.15;;;11.60;99.90;;;;;;5092303;28;20039;-76
2022/06/05 00:16:23;;;;;;;22.70;9.00;;;11.60;99.90;;;;;;5092655;28;20452;-76
2022/06/05 00:18:48;;;;;;;18.30;8.48;;;11.60;99.90;;;;;;5092253;28;20047;-76
2022/06/05 00:21:15;;;;;;;27.95;9.55;;;11.60;99.90;;;;;;5093207;28;20437;-75
2022/06/05 00:23:41;;;;;;;23.63;9.07;;;11.50;99.90;;;;;;5093573;28;20051;-74
2022/06/05 00:26:25;;;;;;;26.23;10.35;;;11.50;99.90;;;;;;5076011;28;20047;-75
2022/06/05 00:28:54;;;;;;;21.10;8.32;;;11.50;99.90;;;;;;5094220;28;20436;-76
2022/06/05 00:31:23;;;;;;;23.73;9.85;;;11.50;99.90;;;;;;5092788;28;20075;-74
2022/06/05 00:33:48;;;;;;;20.27;8.70;;;11.50;99.90;;;;;;5093165;28;20132;-75
2022/06/05 00:36:23;;;;;;;23.00;8.80;;;11.60;99.90;;;;;;5092510;28;20064;-75
2022/06/05 00:39:18;;;;;;;27.30;9.93;;;11.60;99.90;;;;;;5093668;28;20341;-74
2022/06/05 00:41:59;;;;;;;22.48;9.48;;;11.50;99.90;;;;;;5063781;28;20055;-75
2022/06/05 00:44:36;;;;;;;22.65;8.23;;;11.50;99.90;;;;;;5092949;28;20089;-75
2022/06/05 00:47:03;;;;;;;24.08;9.43;;;11.50;99.90;;;;;;5093180;28;20048;-75
2022/06/05 00:49:48;;;;;;;23.38;9.60;;;11.50;99.90;;;;;;5091702;28;20456;-75
2022/06/05 00:52:15;;;;;;;23.33;9.55;;;11.50;99.90;;;;;;5092501;28;20484;-75
2022/06/05 00:54:41;;;;;;;24.33;9.05;;;11.50;99.90;;;;;;5092832;28;20094;-75
2022/06/05 00:57:09;;;;;;;24.02;9.30;;;11.50;99.90;;;;;;5091126;28;20487;-75
2022/06/05 00:59:37;;;;;;;22.52;9.02;;;11.50;99.90;;;;;;5093522;28;20066;-75
2022/06/05 01:02:03;;;;;;;21.02;9.65;;;11.50;99.90;;;;;;5091552;28;20132;-75
2022/06/05 01:04:33;;;;;;;25.27;11.02;;;11.60;99.90;;;;;;5091775;28;20127;-75
2022/06/05 01:06:59;;;;;;;24.95;9.32;;;11.50;99.90;;;;;;5093093;28;20071;-75
2022/06/05 01:09:25;;;;;;;23.48;9.60;;;11.50;99.90;;;;;;5075294;28;20464;-75
2022/06/05 01:12:03;;;;;;;22.80;9.52;;;11.40;99.90;;;;;;5095724;28;20044;-74
2022/06/05 01:14:48;;;;;;;22.27;9.05;;;11.40;99.90;;;;;;5095746;28;20156;-75
2022/06/05 01:17:24;;;;;;;24.00;9.80;;;11.40;99.90;;;;;;5096855;28;20138;-74
2022/06/05 01:20:32;;;;;;;23.40;9.52;;;11.40;99.90;;;;;;5095620;28;20081;-74
2022/06/05 01:23:00;;;;;;;24.05;10.00;;;11.40;99.90;;;;;;5092722;28;20040;-74
2022/06/05 01:25:55;;;;;;;24.25;9.20;;;11.40;99.90;;;;;;5097677;28;20127;-75
2022/06/05 01:28:25;;;;;;;24.45;9.75;;;11.40;99.90;;;;;;5067244;28;20055;-74
2022/06/05 01:31:07;;;;;;;27.38;9.88;;;11.30;99.90;;;;;;5078618;28;20044;-75
2022/06/05 01:33:37;;;;;;;22.73;9.23;;;11.40;99.90;;;;;;5097505;28;20040;-75
2022/06/05 01:36:12;;;;;;;20.88;8.57;;;11.40;99.90;;;;;;5097513;28;20434;-75
2022/06/05 01:38:38;;;;;;;22.13;9.30;;;11.30;99.90;;;;;;5098633;28;20345;-74
2022/06/05 01:41:26;;;;;;;21.65;9.43;;;11.40;99.90;;;;;;5095749;28;20146;-75
2022/06/05 01:43:55;;;;;;;24.35;9.15;;;11.30;99.90;;;;;;5096483;28;20079;-75
2022/06/05 01:46:33;;;;;;;24.40;8.90;;;11.40;99.90;;;;;;5095737;28;20171;-75
2022/06/05 01:49:20;;;;;;;24.67;9.40;;;11.40;99.90;;;;;;5095966;28;20386;-75
2022/06/05 01:51:50;;;;;;;25.50;9.52;;;11.40;99.90;;;;;;5097241;28;20055;-76
2022/06/05 01:54:26;;;;;;;26.05;9.95;;;11.30;99.90;;;;;;5096797;28;20071;-76
2022/06/05 01:56:56;;;;;;;21.55;9.43;;;11.30;99.90;;;;;;5096359;28;20081;-76
2022/06/05 01:59:44;;;;;;;22.95;9.43;;;11.30;99.90;;;;;;5094923;28;20040;-75
2022/06/05 02:02:14;;;;;;;21.92;8.45;;;11.30;99.90;;;;;;5095851;28;20044;-75
2022/06/05 02:04:48;;;;;;;26.13;10.52;;;11.40;99.90;;;;;;5078200;28;20333;-75
2022/06/05 02:07:21;;;;;;;28.88;10.32;;;11.30;99.90;;;;;;5094992;28;20540;-76
2022/06/05 02:10:01;;;;;;;23.08;9.88;;;11.40;99.90;;;;;;5077944;28;20040;-76
2022/06/05 02:12:27;;;;;;;31.08;12.65;;;11.40;99.90;;;;;;5096636;28;20139;-75
2022/06/05 02:14:54;;;;;;;28.42;10.48;;;11.40;99.90;;;;;;5095710;28;20229;-76
2022/06/05 02:17:20;;;;;;;29.35;10.70;;;11.40;99.90;;;;;;5094642;28;20044;-76
2022/06/05 02:19:46;;;;;;;25.70;10.23;;;11.30;99.90;;;;;;5096089;28;20472;-76
2022/06/05 02:22:28;;;;;;;33.60;11.95;;;11.40;99.90;;;;;;5093010;28;20510;-75
2022/06/05 02:24:54;;;;;;;27.27;11.77;;;11.40;99.90;;;;;;5095769;28;20139;-75
2022/06/05 02:27:22;;;;;;;23.67;10.45;;;11.40;99.90;;;;;;5094342;28;20181;-76
2022/06/05 02:29:48;;;;;;;28.77;10.40;;;11.40;99.90;;;;;;5078023;28;20126;-76
2022/06/05 02:32:32;;;;;;;30.15;11.77;;;11.40;99.90;;;;;;5077368;28;20036;-76
2022/06/05 02:35:29;;;;;;;29.90;10.45;;;11.40;99.90;;;;;;5111673;28;20040;-76
2022/06/05 02:38:13;;;;;;;28.50;10.05;;;11.40;99.90;;;;;;5066224;28;20051;-75
2022/06/05 02:40:50;;;;;;;29.73;10.27;;;11.40;99.90;;;;;;5096495;28;20051;-75
2022/06/05 02:44:29;;;;;;;28.00;10.30;;;11.40;99.90;;;;;;5096228;28;20056;-75
2022/06/05 02:46:58;;;;;;;27.52;10.20;;;11.40;99.90;;;;;;5097289;28;20043;-76
2022/06/05 02:49:35;;;;;;;30.52;10.77;;;11.40;99.90;;;;;;5095709;28;20040;-77
2022/06/05 02:52:05;;;;;;;28.48;11.52;;;11.50;99.90;;;;;;5093924;28;20450;-77
2022/06/05 02:54:31;;;;;;;34.58;11.13;;;11.50;99.90;;;;;;5095202;28;20040;-76
2022/06/05 02:56:56;;;;;;;29.10;10.95;;;11.50;99.90;;;;;;5105613;28;20082;-76
2022/06/05 02:59:26;;;;;;;27.98;11.07;;;11.50;99.90;;;;;;5090512;28;20047;-76
2022/06/05 03:04:49;;;;;;;28.90;10.43;;;11.50;99.90;;;;;;5071766;28;20448;-75
2022/06/05 03:07:15;;;;;;;28.38;10.60;;;11.50;99.90;;;;;;5093912;28;20043;-76
2022/06/05 03:09:42;;;;;;;26.38;9.80;;;11.50;99.90;;;;;;5094708;28;20032;-76
2022/06/05 03:12:08;;;;;;;31.25;11.35;;;11.50;99.90;;;;;;5099415;28;20070;-75
2022/06/05 03:14:34;;;;;;;25.93;10.77;;;11.60;99.90;;;;;;5079554;28;20059;-76
2022/06/05 03:17:00;;;;;;;25.38;10.90;;;11.60;99.90;;;;;;5059475;28;20055;-77
2022/06/05 03:19:27;;;;;;;33.78;11.68;;;11.60;99.90;;;;;;5092913;28;20051;-77
2022/06/05 03:21:53;;;;;;;30.42;12.50;;;11.60;99.90;;;;;;5093872;28;20059;-76
2022/06/05 03:24:18;;;;;;;28.25;10.60;;;11.60;99.90;;;;;;5095645;28;20089;-74
2022/06/05 03:26:45;;;;;;;29.95;11.07;;;11.60;99.90;;;;;;5097104;28;20394;-75
2022/06/05 03:29:11;;;;;;;27.63;11.30;;;11.60;99.90;;;;;;5097557;28;20404;-76
2022/06/05 03:31:38;;;;;;;26.95;11.30;;;11.60;99.90;;;;;;5098149;28;20127;-76
2022/06/05 03:34:04;;;;;;;28.58;11.07;;;11.60;99.90;;;;;;5096986;28;20048;-78
2022/06/05 03:36:30;;;;;;;34.07;12.10;;;11.60;99.90;;;;;;5094493;28;20052;-75
2022/06/05 03:38:55;;;;;;;28.95;11.00;;;11.70;99.90;;;;;;5095742;28;20070;-75
2022/06/05 03:41:21;;;;;;;30.67;11.20;;;11.70;99.90;;;;;;5095083;28;20123;-76
2022/06/05 03:43:47;;;;;;;29.20;12.20;;;11.70;99.90;;;;;;5096337;28;20126;-76
2022/06/05 03:46:15;;;;;;;29.90;11.45;;;11.70;99.90;;;;;;5094358;28;20105;-76
2022/06/05 03:48:42;;;;;;;30.10;11.75;;;11.70;99.90;;;;;;5093914;28;20082;-76
2022/06/05 03:51:13;;;;;;;28.02;11.73;;;11.70;99.90;;;;;;5094891;28;20048;-75
2022/06/05 03:53:39;;;;;;;28.55;11.38;;;11.70;99.90;;;;;;5096534;28;20146;-75
2022/06/05 03:56:10;;;;;;;29.50;10.75;;;11.70;99.90;;;;;;5094768;28;20113;-74
2022/06/05 03:58:36;;;;;;;26.92;10.55;;;11.80;99.90;;;;;;5095320;28;20079;-75
2022/06/05 04:01:02;;;;;;;25.48;11.48;;;11.80;99.90;;;;;;5092525;28;20044;-75
2022/06/05 04:03:28;;;;;;;28.03;12.33;;;11.80;99.90;;;;;;5094148;28;20092;-75
2022/06/05 04:05:54;;;;;;;26.35;10.45;;;11.80;99.90;;;;;;5077052;28;20498;-76
2022/06/05 04:08:20;;;;;;;28.90;11.98;;;11.90;99.90;;;;;;5111098;28;20036;-76
2022/06/05 04:10:45;;;;;;;28.05;11.27;;;11.90;99.90;;;;;;5110755;28;20047;-76
2022/06/05 04:13:11;;;;;;;24.20;10.75;;;11.90;99.90;;;;;;5092929;28;20043;-74
2022/06/05 04:15:39;;;;;;;26.13;10.77;;;12.00;99.90;;;;;;5109257;28;20044;-75
2022/06/05 04:18:05;;;;;;;25.98;10.35;;;12.10;99.90;;;;;;5093148;28;20138;-75
2022/06/05 04:20:32;;;;;;;27.75;11.43;;;12.10;99.90;;;;;;5093178;28;20101;-76
2022/06/05 04:22:58;;;;;;;28.38;10.90;;;12.20;99.90;;;;;;5091811;28;20139;-75
2022/06/05 04:25:24;;;;;;;23.92;10.63;;;12.30;99.90;;;;;;5093185;28;20145;-75
2022/06/05 04:27:51;;;;;;;26.73;10.98;;;12.40;99.90;;;;;;5091754;28;20044;-75
2022/06/05 04:30:17;;;;;;;32.15;11.13;;;12.60;99.90;;;;;;5093412;28;20122;-76
2022/06/05 04:32:43;;;;;;;27.63;10.40;;;12.70;99.90;;;;;;5092896;28;20044;-74
2022/06/05 04:35:10;;;;;;;27.70;10.73;;;12.80;99.90;;;;;;5091246;28;20089;-76
2022/06/05 04:37:36;;;;;;;29.40;10.40;;;12.90;99.90;;;;;;5092073;28;20420;-77
2022/06/05 04:40:04;;;;;;;23.38;11.18;;;12.90;99.90;;;;;;5074330;28;20040;-75
2022/06/05 04:42:30;;;;;;;24.45;10.30;;;13.00;99.90;;;;;;5092510;28;20417;-78
2022/06/05 04:44:57;;;;;;;26.50;10.10;;;13.10;99.90;;;;;;5092652;28;20486;-76
2022/06/05 04:47:22;;;;;;;26.67;10.15;;;13.30;99.90;;;;;;5091224;28;20104;-76
2022/06/05 04:49:48;;;;;;;28.50;11.13;;;13.30;99.90;;;;;;5091546;28;20108;-75
2022/06/05 04:52:14;;;;;;;27.27;11.20;;;13.40;99.90;;;;;;5092069;28;20095;-76
2022/06/05 04:54:40;;;;;;;22.50;10.23;;;13.50;99.90;;;;;;5092747;28;20166;-75
2022/06/05 04:57:05;;;;;;;26.38;10.57;;;13.50;99.90;;;;;;5074773;28;20048;-76
2022/06/05 04:59:31;;;;;;;22.13;10.45;;;13.50;99.90;;;;;;5091237;28;20492;-75
2022/06/05 05:01:57;;;;;;;25.73;10.70;;;13.50;99.90;;;;;;5093276;28;20059;-75
2022/06/05 05:04:23;;;;;;;25.83;10.52;;;13.50;99.90;;;;;;5108209;28;20040;-75
2022/06/05 05:06:49;;;;;;;24.73;10.70;;;13.60;99.90;;;;;;5092129;28;20048;-76
2022/06/05 05:09:15;;;;;;;24.40;10.52;;;13.60;99.90;;;;;;5092360;28;20088;-76
2022/06/05 05:11:41;;;;;;;24.17;10.65;;;13.70;99.90;;;;;;5057832;28;20472;-76
2022/06/05 05:14:08;;;;;;;22.00;9.97;;;13.70;99.90;;;;;;5092420;28;20123;-75
2022/06/05 05:16:34;;;;;;;23.05;10.00;;;13.80;99.90;;;;;;5092369;28;20480;-75
2022/06/05 05:19:00;;;;;;;23.45;11.65;;;13.80;99.90;;;;;;5108341;28;20392;-75
2022/06/05 05:21:27;;;;;;;27.17;10.73;;;13.80;99.90;;;;;;5091539;28;20076;-74
2022/06/05 05:23:53;;;;;;;28.77;11.00;;;13.90;99.90;;;;;;5091932;28;20161;-75
2022/06/05 05:26:25;;;;;;;30.58;11.60;;;13.90;99.90;;;;;;5092078;28;20047;-76
2022/06/05 05:28:51;;;;;;;28.48;13.07;;;13.90;99.90;;;;;;5092708;28;20075;-75
2022/06/05 05:31:23;;;;;;;22.40;10.93;;;13.90;99.90;;;;;;5074405;28;20044;-76
2022/06/05 05:33:50;;;;;;;22.90;11.07;;;14.00;99.90;;;;;;5092518;28;20048;-77
2022/06/05 05:36:20;;;;;;;24.08;11.13;;;14.00;99.90;;;;;;5092172;28;20102;-76
2022/06/05 05:42:05;;;;;;;23.27;11.20;;;14.10;99.90;;;;;;5091656;28;20044;-75
2022/06/05 05:44:25;;;;;;;22.00;10.75;;;14.20;99.90;;;;;;5087476;28;20793;-76
2022/06/05 05:46:51;;;;;;;24.90;11.52;;;14.30;99.90;;;;;;5091958;28;20052;-76
2022/06/05 05:49:17;;;;;;;26.50;11.67;;;14.30;99.90;;;;;;5074153;28;20058;-75
2022/06/05 05:51:43;;;;;;;23.40;10.80;;;14.50;99.90;;;;;;5090925;28;20044;-76
2022/06/05 05:54:10;;;;;;;21.45;10.68;;;14.50;99.90;;;;;;5090966;28;20361;-76
2022/06/05 05:56:37;;;;;;;24.45;10.70;;;14.60;99.90;;;;;;5092542;28;20547;-77
2022/06/05 05:59:03;;;;;;;23.58;11.05;;;14.70;99.90;;;;;;5095448;28;20460;-76
2022/06/05 06:01:29;;;;;;;26.65;10.70;;;14.80;99.90;;;;;;5094766;28;20057;-76
2022/06/05 06:03:55;;;;;;;24.73;10.75;;;14.90;99.90;;;;;;5094697;28;20124;-75
2022/06/05 06:06:29;;;;;;;21.92;10.80;;;14.90;99.90;;;;;;5094360;28;20071;-78
2022/06/05 06:08:56;;;;;;;23.10;11.38;;;15.10;99.90;;;;;;5078540;28;20229;-77
2022/06/05 06:11:23;;;;;;;;;;;15.10;99.90;;;;;;5096350;28;20388;-76
2022/06/05 06:13:49;;;;;;;21.30;10.35;;;15.10;99.90;;;;;;5095637;28;19920;-77
2022/06/05 06:16:14;;;;;;;22.42;10.10;;;15.30;99.90;;;;;;5095202;28;20052;-77
2022/06/05 06:18:40;;;;;;;21.58;10.77;;;15.40;99.90;;;;;;5111638;28;20079;-76
2022/06/05 06:21:06;;;;;;;24.02;11.00;;;15.60;99.90;;;;;;5095349;28;20127;-76
2022/06/05 06:23:32;;;;;;;20.17;10.52;;;15.70;99.90;;;;;;5094804;28;20063;-77
2022/06/05 06:25:57;;;;;;;22.75;11.27;;;15.80;99.90;;;;;;5095045;28;20044;-74
2022/06/05 06:28:24;;;;;;;23.55;10.25;;;15.90;99.90;;;;;;5094535;28;20136;-74
2022/06/05 06:30:50;;;;;;;21.05;11.07;;;15.90;99.90;;;;;;5094476;28;20044;-75
2022/06/05 06:33:15;;;;;;;24.83;10.88;;;16.00;99.90;;;;;;5093960;28;20054;-76
2022/06/05 06:35:41;;;;;;;22.05;10.85;;;16.10;99.90;;;;;;5077591;28;20083;-76
2022/06/05 06:38:07;;;;;;;21.83;10.43;;;16.30;99.90;;;;;;5094668;28;20487;-76
2022/06/05 06:40:35;;;;;;;19.88;10.48;;;16.30;99.90;;;;;;5093689;28;20123;-75
2022/06/05 06:43:01;;;;;;;18.83;10.32;;;16.50;99.90;;;;;;5095322;28;20051;-76
2022/06/05 06:45:28;;;;;;;19.13;10.02;;;16.60;99.90;;;;;;5094776;28;20437;-75
2022/06/05 06:47:53;;;;;;;21.65;10.10;;;16.70;99.90;;;;;;5095354;28;20044;-75
2022/06/05 06:50:19;;;;;;;21.58;10.43;;;16.80;99.90;;;;;;5094104;28;20051;-75
2022/06/05 06:52:45;;;;;;;20.08;10.70;;;16.90;99.90;;;;;;5093467;28;20074;-76
2022/06/05 06:55:15;;;;;;;19.13;10.52;;;17.00;99.90;;;;;;5093719;28;20059;-76
2022/06/05 06:57:42;;;;;;;22.55;10.75;;;17.10;99.90;;;;;;5094161;28;20448;-76
2022/06/05 07:00:12;;;;;;;21.95;10.30;;;17.20;99.90;;;;;;5076919;28;20399;-76
2022/06/05 07:02:38;;;;;;;23.17;10.15;;;17.30;99.90;;;;;;5096833;28;20112;-77
2022/06/05 07:05:04;;;;;;;19.75;9.43;;;17.40;99.90;;;;;;5096894;28;20127;-76
2022/06/05 07:07:30;;;;;;;18.87;10.50;;;17.50;99.90;;;;;;5095999;28;20067;-75
2022/06/05 07:09:55;;;;;;;22.35;9.95;;;17.60;99.90;;;;;;5111997;28;20123;-75
2022/06/05 07:12:21;;;;;;;23.17;10.07;;;17.60;99.90;;;;;;5093534;28;20124;-75
2022/06/05 07:14:47;;;;;;;19.77;9.75;;;17.80;99.90;;;;;;5093778;28;20040;-75
2022/06/05 07:17:13;;;;;;;18.55;9.63;;;17.80;99.90;;;;;;5093288;28;20054;-76
2022/06/05 07:19:38;;;;;;;17.73;10.10;;;18.00;99.90;;;;;;5094475;28;20040;-77
2022/06/05 07:22:04;;;;;;;16.90;9.15;;;18.10;99.90;;;;;;5076299;28;20109;-77
2022/06/05 07:24:30;;;;;;;16.40;9.40;;;18.20;99.90;;;;;;5094487;28;20051;-75
2022/06/05 07:26:57;;;;;;;;;;;18.30;99.90;;;;;;5093652;28;20044;-75
2022/06/05 07:29:22;;;;;;;16.77;8.90;;;18.40;99.90;;;;;;5094198;28;19920;-76
2022/06/05 07:31:48;;;;;;;15.73;9.32;;;18.50;99.90;;;;;;5094669;28;20040;-76
2022/06/05 07:34:14;;;;;;;14.87;7.97;;;18.70;99.90;;;;;;5077126;28;20044;-76
2022/06/05 07:36:40;;;;;;;15.77;8.37;;;18.70;99.90;;;;;;5093227;28;20468;-75
2022/06/05 07:39:06;;;;;;;15.23;8.18;;;18.80;99.90;;;;;;5093951;28;20048;-76
2022/06/05 07:41:36;;;;;;;16.17;8.87;;;18.90;99.90;;;;;;5111127;28;20079;-74
2022/06/05 07:44:03;;;;;;;17.80;9.10;;;19.00;99.90;;;;;;5102963;28;20286;-77
2022/06/05 07:46:31;;;;;;;19.30;9.13;;;19.10;99.90;;;;;;5100292;28;20084;-75
2022/06/05 07:48:57;;;;;;;21.38;8.77;;;19.10;99.90;;;;;;5078255;28;20063;-76
2022/06/05 07:54:27;;;;;;;15.02;8.80;;;19.30;99.90;;;;;;5093969;28;20569;-75
2022/06/05 07:56:54;;;;;;;16.17;8.38;;;19.40;99.90;;;;;;5094180;28;20524;-74
2022/06/05 07:59:19;;;;;;;19.13;8.15;;;19.40;99.90;;;;;;5093312;28;20056;-75
2022/06/05 08:01:45;;;;;;;14.33;8.40;;;19.50;99.90;;;;;;5075580;28;20048;-75
2022/06/05 08:04:11;;;;;;;16.60;8.20;;;19.60;99.90;;;;;;5091942;28;20477;-74
2022/06/05 08:06:37;;;;;;;20.07;8.70;;;19.70;99.90;;;;;;5092374;28;20050;-75
2022/06/05 08:09:05;;;;;;;18.57;9.00;;;19.90;99.90;;;;;;5092575;28;20151;-76
2022/06/05 08:11:32;;;;;;;15.80;8.45;;;20.00;99.90;;;;;;5092940;28;20282;-76
2022/06/05 08:13:59;;;;;;;14.68;8.73;;;20.10;99.90;;;;;;5092735;28;20044;-75
2022/06/05 08:16:25;;;;;;;14.05;8.77;;;20.30;99.90;;;;;;5091641;28;20518;-78
2022/06/05 08:18:52;;;;;;;14.65;8.32;;;20.20;99.90;;;;;;5093766;28;20040;-76
2022/06/05 08:21:22;;;;;;;16.25;8.25;;;20.40;99.90;;;;;;5092197;28;20071;-76
2022/06/05 08:23:48;;;;;;;14.73;7.80;;;20.50;99.90;;;;;;5092621;28;20048;-75
2022/06/05 08:26:14;;;;;;;19.00;9.40;;;20.60;99.90;;;;;;5076221;28;20040;-75
2022/06/05 08:28:41;;;;;;;15.13;8.95;;;20.60;99.90;;;;;;5092250;28;20043;-75
2022/06/05 08:31:07;;;;;;;14.98;7.95;;;20.80;99.90;;;;;;5092321;28;20040;-75
2022/06/05 08:33:33;;;;;;;17.60;8.75;;;20.90;99.90;;;;;;5093750;28;20127;-74
2022/06/05 08:35:59;;;;;;;14.63;8.35;;;21.00;99.90;;;;;;5092890;28;20059;-76
2022/06/05 08:41:27;;;;;;;12.43;7.90;;;21.20;99.90;;;;;;5091927;28;20132;-75
2022/06/05 08:44:06;;;;;;;17.50;9.25;;;21.50;99.70;;;;;;5091956;28;20067;-75
2022/06/05 08:46:41;;;;;;;14.18;8.25;;;21.60;98.70;;;;;;5094299;28;20472;-75
2022/06/05 08:49:26;;;;;;;15.45;8.32;;;21.70;98.10;;;;;;5076370;28;20143;-74
2022/06/05 08:52:02;;;;;;;16.63;8.73;;;21.80;97.10;;;;;;5094425;28;20396;-75
2022/06/05 08:54:38;;;;;;;18.90;8.13;;;21.80;96.50;;;;;;5092657;28;20480;-77
2022/06/05 08:57:43;;;;;;;13.80;8.70;;;21.90;96.40;;;;;;5094278;28;20043;-76
2022/06/05 09:00:21;;;;;;;13.20;8.15;;;21.90;95.90;;;;;;5076548;28;20052;-75
2022/06/05 09:03:11;;;;;;;14.75;8.48;;;22.00;95.10;;;;;;5096795;28;20166;-75
2022/06/05 09:05:38;;;;;;;11.75;8.23;;;22.00;93.90;;;;;;5078695;28;20056;-76
2022/06/05 09:08:16;;;;;;;15.30;8.52;;;21.90;94.40;;;;;;5096829;28;20104;-78
2022/06/05 09:10:51;;;;;;;14.68;8.40;;;22.00;94.00;;;;;;5078030;28;20052;-77
2022/06/05 09:13:35;;;;;;;18.05;8.70;;;22.10;94.30;;;;;;5095995;28;20127;-75
2022/06/05 09:16:09;;;;;;;13.60;8.82;;;22.10;93.60;;;;;;5095099;28;20055;-76
2022/06/05 09:18:38;;;;;;;16.60;8.60;;;22.20;94.00;;;;;;5093884;28;20059;-75
2022/06/05 09:21:21;;;;;;;13.35;8.82;;;22.40;94.20;;;;;;5095674;28;20055;-76
2022/06/05 09:24:02;;;;;;;12.93;7.88;;;22.30;93.10;;;;;;5094132;28;20473;-75
2022/06/05 09:26:59;;;;;;;14.30;8.35;;;22.50;93.30;;;;;;5094912;28;20040;-77
2022/06/05 09:29:43;;;;;;;17.15;8.93;;;22.70;92.70;;;;;;5077701;28;20130;-75
2022/06/05 09:32:15;;;;;;;14.23;9.10;;;22.70;92.10;;;;;;5095317;28;20519;-75
2022/06/05 09:34:49;;;;;;;15.75;9.70;;;22.70;92.10;;;;;;5101332;28;20066;-76
2022/06/05 09:37:28;;;;;;;15.20;9.48;;;22.70;91.10;;;;;;5099768;28;20048;-75
2022/06/05 09:40:14;;;;;;;12.80;8.48;;;22.70;91.40;;;;;;5096758;28;20050;-75
2022/06/05 09:42:43;;;;;;;17.67;9.60;;;22.70;91.50;;;;;;5097478;28;20044;-76
2022/06/05 09:45:50;;;;;;;12.95;9.13;;;22.70;91.50;;;;;;5098402;28;20047;-77
2022/06/05 09:48:24;;;;;;;16.80;8.85;;;22.80;91.30;;;;;;5088403;28;20052;-74
2022/06/05 09:50:51;;;;;;;14.82;9.52;;;22.90;91.60;;;;;;5095144;28;20043;-75
2022/06/05 09:53:31;;;;;;;16.08;9.32;;;22.80;91.20;;;;;;5095825;28;20050;-75
2022/06/05 09:56:12;;;;;;;16.83;9.25;;;22.90;91.60;;;;;;5095869;28;20101;-77
2022/06/05 09:58:51;;;;;;;13.07;8.85;;;23.00;91.00;;;;;;5097776;28;20056;-75
2022/06/05 10:01:45;;;;;;;14.95;9.40;;;23.10;90.60;;;;;;5079937;28;20448;-75
2022/06/05 10:04:10;;;;;;;14.27;8.68;;;23.10;90.60;;;;;;5087141;28;20052;-75
2022/06/05 10:06:38;;;;;;;15.43;9.23;;;23.10;91.00;;;;;;5082464;28;20053;-75
2022/06/05 10:09:23;;;;;;;14.55;8.98;;;23.10;90.40;;;;;;5082438;28;20048;-76
2022/06/05 10:11:54;;;;;;;14.77;9.60;;;23.20;90.40;;;;;;5099438;28;20044;-75
2022/06/05 10:14:23;;;;;;;13.15;8.77;;;23.30;90.30;;;;;;5096334;28;20075;-74
2022/06/05 10:16:58;;;;;;;12.48;8.30;;;23.40;90.60;;;;;;5095533;28;20541;-72
2022/06/05 10:19:29;;;;;;;12.85;9.05;;;23.40;90.70;;;;;;5097971;28;20123;-74
2022/06/05 10:22:30;;;;;;;13.02;8.55;;;23.50;90.40;;;;;;5095753;28;20056;-73
2022/06/05 10:25:22;;;;;;;14.73;8.70;;;23.60;90.70;;;;;;5020326;28;20059;-74
2022/06/05 10:27:52;;;;;;;12.88;8.60;;;23.70;90.60;;;;;;5017767;28;20445;-74
2022/06/05 10:30:20;;;;;;;13.68;9.40;;;23.70;90.00;;;;;;5095000;28;20549;-75
2022/06/05 10:33:13;;;;;;;16.98;9.43;;;23.80;88.50;;;;;;5077550;28;20044;-74
2022/06/05 10:35:51;;;;;;;12.30;8.90;;;23.70;86.70;;;;;;5111649;28;20139;-75
2022/06/05 10:38:32;;;;;;;13.63;9.02;;;23.70;88.00;;;;;;5094064;28;20090;-75
2022/06/05 10:41:25;;;;;;;15.57;9.60;;;23.80;86.10;;;;;;5094133;28;20490;-75
2022/06/05 10:44:14;;;;;;;13.90;9.68;;;23.80;84.80;;;;;;5093516;28;20448;-74
2022/06/05 10:46:52;;;;;;;14.35;9.73;;;23.80;84.60;;;;;;5095681;28;20380;-76
2022/06/05 10:49:25;;;;;;;14.55;9.57;;;23.80;84.30;;;;;;5093603;28;20484;-75
2022/06/05 10:52:05;;;;;;;15.32;9.93;;;23.80;85.00;;;;;;5096448;28;20036;-75
2022/06/05 10:54:34;;;;;;;15.25;9.85;;;23.90;84.80;;;;;;5094865;28;20040;-73
2022/06/05 10:57:05;;;;;;;15.82;10.57;;;23.80;85.00;;;;;;5094433;28;20132;-75
2022/06/05 10:59:47;;;;;;;16.02;9.65;;;23.80;84.70;;;;;;5094653;28;20036;-76
2022/06/05 11:02:28;;;;;;;13.73;9.93;;;23.70;84.20;;;;;;5093526;28;20040;-75
2022/06/05 11:05:16;;;;;;;18.30;10.48;;;23.70;85.20;;;;;;5094722;28;20067;-75
2022/06/05 11:07:51;;;;;;;12.55;9.45;;;23.70;85.50;;;;;;5094556;28;20062;-75
2022/06/05 11:13:52;;;;;;;19.42;10.60;;;23.70;86.50;;;;;;5093083;28;20048;-77
2022/06/05 11:16:33;;;;;;;13.68;9.80;;;23.70;85.40;;;;;;5094536;28;20048;-73
2022/06/05 11:19:53;;;;;;;14.75;10.45;;;23.60;86.00;;;;;;5093502;28;20469;-74
2022/06/05 11:22:21;;;;;;;16.67;10.15;;;23.60;85.10;;;;;;5031639;28;20128;-75
2022/06/05 11:24:53;;;;;;;16.13;10.15;;;23.50;85.80;;;;;;5060241;28;20094;-74
2022/06/05 11:27:54;;;;;;;14.93;10.40;;;23.60;85.90;;;;;;5093367;28;20079;-74
2022/06/05 11:30:39;;;;;;;13.73;9.93;;;23.60;86.60;;;;;;5076643;28;20048;-76
2022/06/05 11:33:19;;;;;;;13.93;10.15;;;23.70;85.90;;;;;;5076869;28;20082;-74
2022/06/05 11:35:50;;;;;;;13.88;10.38;;;23.70;85.00;;;;;;5076977;28;20179;-74
2022/06/05 11:38:47;;;;;;;13.43;9.60;;;23.60;84.40;;;;;;5092857;28;20052;-74
2022/06/05 11:41:24;;;;;;;14.77;10.43;;;23.70;84.70;;;;;;5092572;28;20048;-74
2022/06/05 11:44:13;;;;;;;14.00;9.98;;;23.70;85.40;;;;;;5093496;28;20448;-74
2022/06/05 11:47:06;;;;;;;15.43;10.13;;;23.80;84.10;;;;;;5076607;28;20059;-75
2022/06/05 11:49:47;;;;;;;15.20;10.02;;;23.80;84.60;;;;;;5093087;28;20048;-75
2022/06/05 11:52:36;;;;;;;15.82;10.60;;;23.80;84.50;;;;;;5092994;28;20044;-73
2022/06/05 11:55:11;;;;;;;15.88;10.23;;;23.80;84.30;;;;;;5094252;28;20559;-75
2022/06/05 11:57:48;;;;;;;14.90;10.60;;;23.80;83.80;;;;;;5095125;28;20479;-74
2022/06/05 12:00:32;;;;;;;13.23;10.10;;;23.80;83.30;;;;;;5093731;28;20082;-76
2022/06/05 12:03:16;;;;;;;13.27;10.07;;;23.70;83.80;;;;;;5093885;28;20048;-74
2022/06/05 12:06:08;;;;;;;14.65;10.52;;;23.60;84.50;;;;;;5095988;28;20040;-75
2022/06/05 12:08:39;;;;;;;14.45;10.40;;;23.60;84.80;;;;;;5095900;28;20082;-75
2022/06/05 12:11:10;;;;;;;14.30;10.48;;;23.70;84.70;;;;;;5095632;28;20096;-75
2022/06/05 12:14:01;;;;;;;16.00;10.57;;;23.70;85.60;;;;;;5095541;28;20048;-74
2022/06/05 12:16:42;;;;;;;14.05;10.13;;;23.70;84.90;;;;;;5094957;28;20173;-74
2022/06/05 12:19:15;;;;;;;13.63;9.70;;;23.70;84.90;;;;;;5097097;28;20101;-75
2022/06/05 12:22:07;;;;;;;13.27;10.27;;;23.70;83.70;;;;;;5098152;28;20086;-75
2022/06/05 12:24:55;;;;;;;16.65;10.68;;;23.70;83.60;;;;;;5079782;28;20059;-74
2022/06/05 12:27:20;;;;;;;16.92;10.35;;;23.80;84.10;;;;;;5097360;28;20135;-74
2022/06/05 12:30:13;;;;;;;14.67;10.30;;;23.80;83.30;;;;;;5078803;28;20126;-75
2022/06/05 12:32:45;;;;;;;13.30;9.82;;;23.90;83.50;;;;;;5096532;28;20078;-74
2022/06/05 12:35:20;;;;;;;14.73;9.93;;;23.90;83.40;;;;;;5094443;28;20131;-74
2022/06/05 12:37:55;;;;;;;17.67;10.73;;;23.90;83.80;;;;;;5095006;28;20060;-76
2022/06/05 12:40:29;;;;;;;14.18;9.52;;;24.00;82.90;;;;;;5095106;28;20036;-75
2022/06/05 12:43:04;;;;;;;15.15;10.30;;;24.10;82.90;;;;;;5095626;28;20507;-75
2022/06/05 12:45:32;;;;;;;17.07;10.03;;;24.10;82.30;;;;;;5095799;28;20130;-74
2022/06/05 12:48:13;;;;;;;15.50;9.90;;;24.10;81.90;;;;;;5095726;28;20289;-74
2022/06/05 12:50:48;;;;;;;14.85;10.23;;;24.10;82.20;;;;;;5077083;28;20136;-75
2022/06/05 12:53:36;;;;;;;14.32;9.70;;;24.10;82.30;;;;;;5076630;28;20040;-76
2022/06/05 12:56:25;;;;;;;14.30;10.18;;;24.10;82.80;;;;;;5092780;28;20043;-76
2022/06/05 12:59:13;;;;;;;13.85;9.63;;;24.20;81.80;;;;;;5094649;28;20040;-75
2022/06/05 13:01:46;;;;;;;17.35;9.88;;;24.30;82.00;;;;;;5092030;28;20082;-76
2022/06/05 13:04:36;;;;;;;13.50;10.75;;;24.30;81.60;;;;;;5093510;28;20044;-76
2022/06/05 13:07:25;;;;;;;13.60;9.32;;;24.50;80.50;;;;;;5112178;28;20059;-79
2022/06/05 13:09:59;;;;;;;16.48;10.43;;;24.60;79.80;;;;;;5081319;28;20138;-75
2022/06/05 13:12:33;;;;;;;15.52;9.38;;;24.70;79.70;;;;;;5095618;28;20513;-74
2022/06/05 13:15:21;;;;;;;12.80;9.43;;;24.90;79.20;;;;;;5096471;28;20096;-75
2022/06/05 13:18:06;;;;;;;14.20;9.77;;;25.00;78.60;;;;;;5079599;28;20498;-75